Mettet, Belgium
Current Conditions -  °F | °C
As of 3:55 AM on Monday 24 Nov 2014 (Local Time) from EBFS Reporting Station
Broken Clouds Broken Clouds  
Wind Chill: 46°   Ceiling: 600
Heat Index: 48°   Visibility: 5mi
Dew Point: 46°   Wind: 5mph
Humidity: 93%   Direction: 360°N
Pressure: 30.12"   Gusts: NA
Location:  50.32°N, 4.66°E
Report Text: EBFS 240255Z 36004KT 8000 FEW004 BKN006 BKN024 09/08 Q1020 YLO
Loading
Personal Weather Stations






























Interactive Weather Map New forecast layout! Learn more

10-Day Weather Forecast

Advertisements
Track Severe Weather on mobile